createdAt,value
2018-03-28T00:02:15.053Z,9.47
2018-03-28T00:04:43.245Z,10.47
2018-03-28T00:07:11.426Z,8.50
2018-03-28T00:09:39.610Z,9.63
2018-03-28T00:12:07.799Z,9.10
2018-03-28T00:14:35.992Z,7.97
2018-03-28T00:17:04.181Z,8.40
2018-03-28T00:19:32.392Z,8.60
2018-03-28T00:22:01.400Z,8.87
2018-03-28T00:24:30.647Z,10.20
2018-03-28T00:26:58.810Z,8.60
2018-03-28T00:29:26.977Z,9.43
2018-03-28T00:31:55.151Z,8.30
2018-03-28T00:34:23.301Z,8.50
2018-03-28T00:36:51.508Z,8.80
2018-03-28T00:39:19.674Z,8.60
2018-03-28T00:41:47.876Z,8.40
2018-03-28T00:44:16.065Z,8.23
2018-03-28T00:46:44.299Z,8.43
2018-03-28T00:49:12.476Z,9.00
2018-03-28T00:51:40.653Z,9.33
2018-03-28T00:54:08.824Z,8.50
2018-03-28T00:56:37.003Z,9.97
2018-03-28T00:59:05.161Z,7.60
2018-03-28T01:01:33.410Z,8.60
2018-03-28T01:04:02.383Z,8.97
2018-03-28T01:06:31.333Z,8.73
2018-03-28T01:08:59.529Z,9.13
2018-03-28T01:11:27.774Z,9.10
2018-03-28T01:13:55.970Z,8.97
2018-03-28T01:16:24.151Z,9.57
2018-03-28T01:18:52.331Z,9.87
2018-03-28T01:21:20.480Z,10.60
2018-03-28T01:23:48.649Z,9.13
2018-03-28T01:26:16.851Z,9.23
2018-03-28T01:28:45.006Z,9.90
2018-03-28T01:31:13.197Z,9.17
2018-03-28T01:33:41.378Z,10.60
2018-03-28T01:36:10.343Z,11.13
2018-03-28T01:38:38.510Z,10.17
2018-03-28T01:41:06.688Z,9.70
2018-03-28T01:43:34.909Z,10.00
2018-03-28T01:46:03.062Z,9.97
2018-03-28T01:48:31.965Z,9.90
2018-03-28T01:51:00.139Z,9.40
2018-03-28T01:53:29.103Z,10.40
2018-03-28T01:55:57.346Z,9.63
2018-03-28T01:58:25.563Z,10.17
2018-03-28T02:00:54.533Z,9.17
2018-03-28T02:03:22.705Z,9.73
2018-03-28T02:05:50.892Z,9.63
2018-03-28T02:08:19.080Z,9.40
2018-03-28T02:10:48.003Z,9.57
2018-03-28T02:13:16.200Z,10.47
2018-03-28T02:15:44.427Z,9.33
2018-03-28T02:18:13.364Z,8.53
2018-03-28T02:20:41.555Z,9.53
2018-03-28T02:23:09.746Z,9.80
2018-03-28T02:25:37.964Z,8.97
2018-03-28T02:28:06.106Z,11.20
2018-03-28T02:30:35.069Z,10.20
2018-03-28T02:33:03.257Z,9.97
2018-03-28T02:35:32.194Z,10.30
2018-03-28T02:38:00.499Z,10.53
2018-03-28T02:40:29.482Z,11.00
2018-03-28T02:42:57.644Z,11.30
2018-03-28T02:45:25.820Z,10.70
2018-03-28T02:47:54.000Z,11.10
2018-03-28T02:50:22.164Z,11.03
2018-03-28T02:52:50.386Z,11.57
2018-03-28T02:55:19.342Z,11.40
2018-03-28T02:57:47.513Z,11.53
2018-03-28T03:00:15.703Z,9.77
2018-03-28T03:02:44.282Z,11.10
2018-03-28T03:05:12.652Z,12.10
2018-03-28T03:07:40.851Z,11.33
2018-03-28T03:10:09.032Z,11.70
2018-03-28T03:12:37.198Z,11.40
2018-03-28T03:15:05.394Z,11.20
2018-03-28T03:17:34.325Z,11.23
2018-03-28T03:20:02.518Z,11.60
2018-03-28T03:22:30.738Z,11.93
2018-03-28T03:24:59.177Z,11.87
2018-03-28T03:27:27.370Z,11.50
2018-03-28T03:29:56.322Z,12.20
2018-03-28T03:32:24.491Z,12.30
2018-03-28T03:34:52.729Z,12.30
2018-03-28T03:37:20.955Z,13.40
2018-03-28T03:39:49.181Z,13.83
2018-03-28T03:42:17.386Z,12.90
2018-03-28T03:44:45.558Z,12.77
2018-03-28T03:47:13.764Z,13.67
2018-03-28T03:49:42.743Z,13.67
2018-03-28T03:52:10.925Z,13.30
2018-03-28T03:54:39.127Z,13.70
2018-03-28T03:57:08.132Z,14.13
2018-03-28T03:59:36.321Z,14.23
2018-03-28T04:02:04.489Z,13.67
2018-03-28T04:04:32.656Z,15.20
2018-03-28T04:07:00.839Z,14.47
2018-03-28T04:09:29.070Z,14.90
2018-03-28T04:11:58.011Z,14.00
2018-03-28T04:14:26.182Z,15.30
2018-03-28T04:16:54.428Z,13.73
2018-03-28T04:19:22.614Z,14.97
2018-03-28T04:21:50.829Z,14.60
2018-03-28T04:24:18.990Z,16.77
2018-03-28T04:26:47.155Z,17.73
2018-03-28T04:29:15.394Z,15.43
2018-03-28T04:31:44.334Z,15.50
2018-03-28T04:34:12.579Z,15.10
2018-03-28T04:36:40.826Z,17.70
2018-03-28T04:39:08.987Z,15.30
2018-03-28T04:41:37.948Z,16.50
2018-03-28T04:44:06.155Z,16.00
2018-03-28T04:46:35.090Z,15.73
2018-03-28T04:49:03.370Z,16.10
2018-03-28T04:51:31.551Z,16.13
2018-03-28T04:53:59.741Z,18.20
2018-03-28T04:56:27.918Z,17.77
2018-03-28T04:58:56.137Z,17.00
2018-03-28T05:01:24.325Z,17.40
2018-03-28T05:03:52.510Z,15.57
2018-03-28T05:06:20.728Z,16.97
2018-03-28T05:08:48.959Z,15.73
2018-03-28T05:11:17.198Z,16.07
2018-03-28T05:13:46.159Z,15.20
2018-03-28T05:16:14.390Z,17.23
2018-03-28T05:18:42.591Z,18.10
2018-03-28T05:21:10.763Z,17.20
2018-03-28T05:23:38.987Z,15.10
2018-03-28T05:26:07.167Z,15.30
2018-03-28T05:28:35.359Z,16.17
2018-03-28T05:31:03.523Z,18.17
2018-03-28T05:33:31.711Z,16.83
2018-03-28T05:35:59.900Z,17.83
2018-03-28T05:38:28.106Z,16.97
2018-03-28T05:40:57.056Z,15.33
2018-03-28T05:43:25.254Z,15.03
2018-03-28T05:45:53.470Z,17.67
2018-03-28T05:48:21.683Z,15.27
2018-03-28T05:50:49.893Z,17.50
2018-03-28T05:53:18.886Z,16.73
2018-03-28T05:55:47.951Z,18.20
2018-03-28T05:58:16.178Z,10.37
2018-03-28T06:00:44.355Z,17.37
2018-03-28T06:03:12.810Z,16.80
2018-03-28T06:05:41.855Z,15.57
2018-03-28T06:08:10.034Z,15.97
2018-03-28T06:10:38.228Z,17.30
2018-03-28T06:13:06.402Z,15.93
2018-03-28T06:15:34.605Z,17.20
2018-03-28T06:18:03.563Z,19.17
2018-03-28T06:20:31.743Z,17.33
2018-03-28T06:22:59.998Z,16.27
2018-03-28T06:25:28.210Z,18.40
2018-03-28T06:27:57.140Z,19.23
2018-03-28T06:30:25.338Z,20.00
2018-03-28T06:32:53.571Z,18.50
2018-03-28T06:35:21.796Z,17.07
2018-03-28T06:37:49.983Z,16.50
2018-03-28T06:40:19.070Z,18.00
2018-03-28T06:42:47.398Z,15.13
2018-03-28T06:45:15.636Z,19.07
2018-03-28T06:47:43.850Z,18.70
2018-03-28T06:50:12.085Z,19.70
2018-03-28T06:52:40.263Z,20.53
2018-03-28T06:55:09.235Z,19.00
2018-03-28T06:57:37.418Z,19.10
2018-03-28T07:00:05.595Z,19.07
2018-03-28T07:02:34.684Z,20.60
2018-03-28T07:05:02.894Z,19.33
2018-03-28T07:07:31.141Z,19.87
2018-03-28T07:09:59.310Z,19.50
2018-03-28T07:12:27.506Z,19.47
2018-03-28T07:14:56.478Z,19.50
2018-03-28T07:17:25.473Z,18.47
2018-03-28T07:19:53.779Z,18.20
2018-03-28T07:22:22.124Z,18.13
2018-03-28T07:24:51.126Z,18.20
2018-03-28T07:27:20.083Z,13.00
2018-03-28T07:29:48.283Z,18.07
2018-03-28T07:32:17.262Z,17.13
2018-03-28T07:34:45.446Z,17.57
2018-03-28T07:37:14.410Z,16.80
2018-03-28T07:39:42.622Z,18.03
2018-03-28T07:42:11.583Z,17.37
2018-03-28T07:44:39.782Z,14.30
2018-03-28T07:47:08.730Z,16.77
2018-03-28T07:49:36.936Z,17.23
2018-03-28T07:52:05.968Z,16.10
2018-03-28T07:54:34.142Z,16.37
2018-03-28T07:57:02.428Z,14.73
2018-03-28T07:59:30.678Z,14.93
2018-03-28T08:01:58.867Z,15.80
2018-03-28T08:04:27.143Z,14.93
2018-03-28T08:06:55.393Z,15.67
2018-03-28T08:09:23.671Z,16.00
2018-03-28T08:11:51.891Z,12.47
2018-03-28T08:14:20.101Z,15.37
2018-03-28T08:16:49.166Z,16.10
2018-03-28T08:19:17.438Z,14.20
2018-03-28T08:21:45.664Z,17.70
2018-03-28T08:24:13.840Z,13.63
2018-03-28T08:26:42.078Z,15.30
2018-03-28T08:29:10.319Z,17.37
2018-03-28T08:31:38.538Z,15.43
2018-03-28T08:34:06.755Z,13.87
2018-03-28T08:36:34.987Z,14.73
2018-03-28T08:39:03.981Z,17.53
2018-03-28T08:41:33.006Z,16.30
2018-03-28T08:44:01.249Z,15.57
2018-03-28T08:46:29.444Z,16.50
2018-03-28T08:48:57.706Z,16.70
2018-03-28T08:51:26.728Z,14.40
2018-03-28T08:53:54.910Z,15.50
2018-03-28T08:56:23.264Z,16.37
2018-03-28T08:58:51.437Z,15.97
2018-03-28T09:01:19.693Z,17.50
2018-03-28T09:03:48.650Z,17.03
2018-03-28T09:06:16.866Z,16.30
2018-03-28T09:08:45.152Z,17.30
2018-03-28T09:11:13.369Z,18.10
2018-03-28T09:13:41.774Z,17.77
2018-03-28T09:16:10.015Z,17.70
2018-03-28T09:18:38.279Z,15.83
2018-03-28T09:21:06.522Z,15.97
2018-03-28T09:23:34.727Z,17.40
2018-03-28T09:26:02.934Z,15.90
2018-03-28T09:28:31.157Z,16.53
2018-03-28T09:30:59.339Z,15.70
2018-03-28T09:33:28.356Z,16.10
2018-03-28T09:35:56.644Z,15.40
2018-03-28T09:38:26.171Z,15.20
2018-03-28T09:40:55.394Z,13.53
2018-03-28T09:43:23.988Z,15.00
2018-03-28T09:45:52.971Z,14.03
2018-03-28T09:48:21.938Z,12.43
2018-03-28T09:50:50.910Z,13.20
2018-03-28T09:53:19.190Z,14.40
2018-03-28T09:55:47.362Z,14.30
2018-03-28T09:58:15.546Z,11.23
2018-03-28T10:00:45.635Z,12.20
2018-03-28T10:03:13.844Z,12.17
2018-03-28T10:05:42.864Z,11.70
2018-03-28T10:08:11.046Z,11.43
2018-03-28T10:10:39.222Z,12.40
2018-03-28T10:13:07.479Z,12.87
2018-03-28T10:15:35.659Z,10.40
2018-03-28T10:18:03.872Z,12.63
2018-03-28T10:20:32.192Z,11.83
2018-03-28T10:23:01.225Z,11.70
2018-03-28T10:25:29.430Z,12.10
2018-03-28T10:27:57.659Z,11.33
2018-03-28T10:30:25.981Z,10.80
2018-03-28T10:32:54.277Z,11.83
2018-03-28T10:35:23.320Z,11.13
2018-03-28T10:37:51.494Z,12.00
2018-03-28T10:40:19.831Z,11.87
2018-03-28T10:42:48.772Z,11.37
2018-03-28T10:45:16.942Z,12.17
2018-03-28T10:47:45.112Z,11.50
2018-03-28T10:50:13.284Z,11.73
2018-03-28T10:52:41.554Z,11.90
2018-03-28T10:55:09.730Z,11.67
2018-03-28T10:57:38.053Z,12.57
2018-03-28T11:00:06.995Z,12.23
2018-03-28T11:02:35.179Z,11.33
2018-03-28T11:05:03.416Z,11.77
2018-03-28T11:07:31.611Z,14.20
2018-03-28T11:09:59.840Z,14.50
2018-03-28T11:12:28.091Z,14.23
2018-03-28T11:14:56.346Z,14.70
2018-03-28T11:17:24.912Z,14.57
2018-03-28T11:19:53.778Z,13.03
2018-03-28T11:22:22.110Z,14.60
2018-03-28T11:24:50.396Z,15.07
2018-03-28T11:27:18.748Z,13.23
2018-03-28T11:29:46.972Z,15.27
2018-03-28T11:32:15.960Z,12.20
2018-03-28T11:34:44.938Z,13.60
2018-03-28T11:37:13.342Z,15.50
2018-03-28T11:39:42.020Z,15.27
2018-03-28T11:42:11.023Z,16.20
2018-03-28T11:44:39.267Z,15.27
2018-03-28T11:47:07.497Z,16.67
2018-03-28T11:49:35.737Z,17.10
2018-03-28T11:52:04.813Z,16.20
2018-03-28T11:54:33.033Z,15.93
2018-03-28T11:57:01.256Z,15.87
2018-03-28T11:59:29.433Z,15.50
2018-03-28T12:01:57.616Z,14.37
2018-03-28T12:04:26.631Z,15.30
2018-03-28T12:06:54.823Z,15.47
2018-03-28T12:09:23.112Z,15.40
2018-03-28T12:11:51.316Z,15.90
2018-03-28T12:14:20.369Z,15.40
2018-03-28T12:16:49.339Z,16.07
2018-03-28T12:19:17.625Z,16.30
2018-03-28T12:21:45.923Z,16.87
2018-03-28T12:24:14.319Z,17.37
2018-03-28T12:26:42.614Z,17.27
2018-03-28T12:29:10.796Z,16.93
2018-03-28T12:31:39.761Z,17.53
2018-03-28T12:34:08.035Z,15.90
2018-03-28T12:36:36.264Z,16.63
2018-03-28T12:39:04.507Z,18.47
2018-03-28T12:41:32.769Z,18.47
2018-03-28T12:44:01.162Z,16.60
2018-03-28T12:46:30.128Z,17.97
2018-03-28T12:48:58.330Z,17.70
2018-03-28T12:51:27.298Z,19.43
2018-03-28T12:53:56.322Z,18.33
2018-03-28T12:56:24.487Z,17.63
2018-03-28T12:58:52.687Z,18.30
2018-03-28T13:01:21.783Z,17.33
2018-03-28T13:03:50.018Z,20.30
2018-03-28T13:06:18.193Z,17.67
2018-03-28T13:08:47.185Z,17.60
2018-03-28T13:11:16.300Z,16.40
2018-03-28T13:13:44.704Z,20.47
2018-03-28T13:16:12.893Z,18.23
2018-03-28T13:18:41.156Z,16.40
2018-03-28T13:21:09.452Z,17.47
2018-03-28T13:23:37.636Z,18.67
2018-03-28T13:26:05.831Z,20.13
2018-03-28T13:28:34.823Z,18.47
2018-03-28T13:31:03.767Z,20.10
2018-03-28T13:33:31.997Z,19.27
2018-03-28T13:36:01.004Z,22.00
2018-03-28T13:38:29.254Z,19.60
2018-03-28T13:40:58.249Z,20.20
2018-03-28T13:43:27.275Z,19.40
2018-03-28T13:45:56.724Z,20.90
2018-03-28T13:51:01.315Z,19.20
2018-03-28T13:53:29.518Z,18.97
2018-03-28T13:55:57.719Z,19.60
2018-03-28T13:58:26.122Z,18.77
2018-03-28T14:00:55.076Z,19.90
2018-03-28T14:03:23.348Z,19.23
2018-03-28T14:05:51.574Z,20.10
2018-03-28T14:08:19.780Z,22.30
2018-03-28T14:10:48.015Z,20.10
2018-03-28T14:13:16.235Z,21.00
2018-03-28T14:15:44.463Z,20.07
2018-03-28T14:18:12.737Z,20.10
2018-03-28T14:20:41.672Z,20.70
2018-03-28T14:23:09.898Z,20.83
2018-03-28T14:25:38.094Z,20.60
2018-03-28T14:28:06.339Z,18.63
2018-03-28T14:30:35.310Z,20.17
2018-03-28T14:33:03.483Z,19.10
2018-03-28T14:35:31.794Z,22.13
2018-03-28T14:38:00.015Z,17.33
2018-03-28T14:40:28.356Z,20.03
2018-03-28T14:42:56.631Z,21.73
2018-03-28T14:45:24.809Z,21.27
2018-03-28T14:47:52.974Z,20.07
2018-03-28T14:50:21.166Z,18.13
2018-03-28T14:52:49.380Z,18.33
2018-03-28T14:55:17.766Z,18.80
2018-03-28T14:57:46.206Z,11.03
2018-03-28T15:00:14.494Z,18.13
2018-03-28T15:02:42.796Z,21.07
2018-03-28T15:05:11.004Z,22.23
2018-03-28T15:07:39.257Z,22.97
2018-03-28T15:10:07.458Z,21.57
2018-03-28T15:12:35.678Z,18.40
2018-03-28T15:15:04.762Z,19.40
2018-03-28T15:17:33.159Z,20.40
2018-03-28T15:20:01.379Z,21.13
2018-03-28T15:22:29.619Z,21.27
2018-03-28T15:24:58.596Z,21.67
2018-03-28T15:27:26.803Z,21.87
2018-03-28T15:29:55.013Z,15.97
2018-03-28T15:32:23.222Z,22.50
2018-03-28T15:38:13.436Z,23.33
2018-03-28T15:40:41.624Z,21.50
2018-03-28T15:43:09.810Z,22.70
2018-03-28T15:45:38.270Z,23.00
2018-03-28T15:48:06.630Z,22.80
2018-03-28T15:50:34.981Z,24.27
2018-03-28T15:53:03.241Z,18.53
2018-03-28T15:55:31.513Z,23.50
2018-03-28T15:57:59.891Z,24.40
2018-03-28T16:00:28.320Z,22.50
2018-03-28T16:02:56.509Z,25.90
2018-03-28T16:05:24.911Z,25.20
2018-03-28T16:07:53.191Z,24.80
2018-03-28T16:10:21.474Z,24.43
2018-03-28T16:12:49.726Z,27.13
2018-03-28T16:15:17.987Z,26.13
2018-03-28T16:17:46.992Z,27.23
2018-03-28T16:20:15.266Z,26.10
2018-03-28T16:22:44.326Z,27.00
2018-03-28T16:25:12.526Z,26.90
2018-03-28T16:27:41.590Z,24.50
2018-03-28T16:30:09.782Z,27.60
2018-03-28T16:32:38.174Z,27.27
2018-03-28T16:35:07.129Z,28.47
2018-03-28T16:37:35.350Z,26.60
2018-03-28T16:40:03.523Z,28.30
2018-03-28T16:42:31.731Z,28.00
2018-03-28T16:44:59.937Z,27.40
2018-03-28T16:47:28.151Z,29.13
2018-03-28T16:49:56.407Z,29.53
2018-03-28T16:52:25.340Z,29.07
2018-03-28T16:54:53.664Z,28.27
2018-03-28T16:57:22.657Z,30.53
2018-03-28T16:59:50.871Z,27.23
2018-03-28T17:02:19.117Z,29.30
2018-03-28T17:04:48.127Z,29.67
2018-03-28T17:07:17.112Z,27.13
2018-03-28T17:09:45.359Z,26.97
2018-03-28T17:12:14.333Z,28.60
2018-03-28T17:14:42.712Z,28.13
2018-03-28T17:17:10.912Z,27.30
2018-03-28T17:19:39.135Z,27.80
2018-03-28T17:22:07.336Z,27.80
2018-03-28T17:24:35.610Z,26.10
2018-03-28T17:27:03.828Z,25.10
2018-03-28T17:29:32.091Z,30.83
2018-03-28T17:32:01.159Z,27.67
2018-03-28T17:34:29.334Z,27.20
2018-03-28T17:36:57.587Z,27.00
2018-03-28T17:39:25.857Z,26.53
2018-03-28T17:41:54.133Z,25.90
2018-03-28T17:44:22.347Z,27.67
2018-03-28T17:46:51.517Z,25.37
2018-03-28T17:49:19.722Z,26.60
2018-03-28T17:51:48.731Z,25.87
2018-03-28T17:54:16.956Z,26.27
2018-03-28T17:59:20.296Z,25.10
2018-03-28T18:01:48.520Z,24.90
2018-03-28T18:04:16.715Z,24.60
2018-03-28T18:06:45.624Z,26.50
2018-03-28T18:09:13.826Z,23.63
2018-03-28T18:11:42.092Z,25.17
2018-03-28T18:14:10.328Z,26.23
2018-03-28T18:16:38.518Z,26.47
2018-03-28T18:19:06.724Z,23.03
2018-03-28T18:21:34.944Z,24.27
2018-03-28T18:24:03.181Z,23.77
2018-03-28T18:26:31.424Z,24.80
2018-03-28T18:28:59.647Z,25.33
2018-03-28T18:31:27.867Z,23.30
2018-03-28T18:33:56.141Z,24.07
2018-03-28T18:36:24.373Z,21.67
2018-03-28T18:38:52.558Z,22.73
2018-03-28T18:41:20.747Z,24.47
2018-03-28T18:43:49.831Z,23.17
2018-03-28T18:46:18.056Z,21.97
2018-03-28T18:48:46.269Z,22.40
2018-03-28T18:51:14.695Z,22.27
2018-03-28T18:53:42.949Z,23.00
2018-03-28T18:56:11.159Z,22.90
2018-03-28T18:58:39.392Z,22.50
2018-03-28T19:01:07.683Z,19.20
2018-03-28T19:03:36.118Z,21.50
2018-03-28T19:06:04.282Z,21.40
2018-03-28T19:08:32.501Z,21.80
2018-03-28T19:11:00.702Z,22.33
2018-03-28T19:13:28.912Z,20.37
2018-03-28T19:15:57.116Z,20.43
2018-03-28T19:18:25.368Z,20.50
2018-03-28T19:20:53.641Z,20.80
2018-03-28T19:23:21.842Z,17.80
2018-03-28T19:25:50.099Z,19.60
2018-03-28T19:28:18.300Z,18.10
2018-03-28T19:30:46.631Z,20.07
2018-03-28T19:33:14.856Z,21.93
2018-03-28T19:35:43.948Z,23.33
2018-03-28T19:38:13.054Z,22.20
2018-03-28T19:40:41.296Z,22.87
2018-03-28T19:43:10.317Z,23.23
2018-03-28T19:45:39.282Z,21.97
2018-03-28T19:48:07.487Z,21.73
2018-03-28T19:50:36.506Z,23.43
2018-03-28T19:53:04.775Z,19.80
2018-03-28T19:55:33.881Z,22.37
2018-03-28T19:58:02.092Z,20.57
2018-03-28T20:00:30.357Z,22.07
2018-03-28T20:02:58.571Z,19.90
2018-03-28T20:05:27.560Z,20.87
2018-03-28T20:07:56.525Z,21.63
2018-03-28T20:10:24.795Z,23.87
2018-03-28T20:12:53.002Z,22.77
2018-03-28T20:15:22.070Z,22.77
2018-03-28T20:17:50.287Z,24.50
2018-03-28T20:20:18.592Z,25.53
2018-03-28T20:22:46.961Z,25.27
2018-03-28T20:25:15.217Z,22.80
2018-03-28T20:27:43.440Z,23.77
2018-03-28T20:30:11.704Z,23.50
2018-03-28T20:32:39.991Z,21.60
2018-03-28T20:35:08.303Z,23.07
2018-03-28T20:37:36.506Z,23.40
2018-03-28T20:40:04.731Z,24.30
2018-03-28T20:42:32.960Z,24.73
2018-03-28T20:45:01.194Z,24.60
2018-03-28T20:47:30.209Z,23.93
2018-03-28T20:49:58.421Z,21.50
2018-03-28T20:52:26.615Z,23.77
2018-03-28T20:54:54.837Z,26.13
2018-03-28T20:57:23.040Z,25.27
2018-03-28T20:59:51.251Z,23.97
2018-03-28T21:02:20.288Z,20.00
2018-03-28T21:04:48.664Z,24.00
2018-03-28T21:07:16.880Z,22.27
2018-03-28T21:09:45.103Z,25.03
2018-03-28T21:12:13.335Z,17.57
2018-03-28T21:14:42.366Z,21.27
2018-03-28T21:17:10.719Z,22.10
2018-03-28T21:19:39.815Z,25.53
2018-03-28T21:22:08.038Z,21.90
2018-03-28T21:24:36.403Z,25.37
2018-03-28T21:27:04.667Z,21.70
2018-03-28T21:29:32.975Z,22.97
2018-03-28T21:32:01.162Z,21.10
2018-03-28T21:34:29.386Z,21.97
2018-03-28T21:36:57.595Z,22.33
2018-03-28T21:39:25.843Z,21.43
2018-03-28T21:41:54.834Z,20.90
2018-03-28T21:44:23.040Z,19.40
2018-03-28T21:46:51.247Z,19.60
2018-03-28T21:49:20.312Z,23.00
2018-03-28T21:51:48.496Z,21.40
2018-03-28T21:54:16.743Z,20.73
2018-03-28T21:56:44.936Z,21.47
2018-03-28T21:59:13.181Z,18.10
2018-03-28T22:01:41.400Z,20.97
2018-03-28T22:04:10.505Z,21.20
2018-03-28T22:06:38.842Z,21.47
2018-03-28T22:09:07.035Z,18.33
2018-03-28T22:11:35.274Z,19.57
2018-03-28T22:14:03.589Z,21.20
2018-03-28T22:16:31.765Z,16.57
2018-03-28T22:18:59.998Z,21.80
2018-03-28T22:21:28.219Z,17.20
2018-03-28T22:23:56.418Z,19.57
2018-03-28T22:26:24.589Z,17.20
2018-03-28T22:28:53.555Z,20.93
2018-03-28T22:31:21.760Z,15.27
2018-03-28T22:33:49.949Z,19.60
2018-03-28T22:36:18.131Z,18.83
2018-03-28T22:38:46.340Z,21.47
2018-03-28T22:41:14.571Z,21.67
2018-03-28T22:43:42.795Z,19.60
2018-03-28T22:46:10.979Z,20.67
2018-03-28T22:48:39.938Z,19.77
2018-03-28T22:51:08.129Z,19.53
2018-03-28T22:53:36.420Z,20.40
2018-03-28T22:56:05.389Z,19.70
2018-03-28T22:58:33.575Z,19.57
2018-03-28T23:01:01.796Z,19.70
2018-03-28T23:03:30.026Z,19.87
2018-03-28T23:05:58.239Z,19.30
2018-03-28T23:08:26.430Z,18.63
2018-03-28T23:10:54.743Z,19.30
2018-03-28T23:13:22.998Z,18.67
2018-03-28T23:15:51.287Z,17.60
2018-03-28T23:18:19.476Z,19.67
2018-03-28T23:20:47.658Z,19.30
2018-03-28T23:23:15.997Z,17.10
2018-03-28T23:25:44.258Z,18.00
2018-03-28T23:28:12.455Z,18.97
2018-03-28T23:30:40.738Z,18.33
2018-03-28T23:33:09.035Z,17.10
2018-03-28T23:35:37.970Z,17.00
2018-03-28T23:38:06.189Z,17.30
2018-03-28T23:40:34.362Z,18.10
2018-03-28T23:43:03.359Z,18.80
2018-03-28T23:45:31.614Z,17.80
2018-03-28T23:47:59.816Z,18.03
2018-03-28T23:50:28.742Z,17.07
2018-03-28T23:52:56.944Z,18.63
2018-03-28T23:55:25.147Z,16.53
2018-03-28T23:57:53.332Z,16.83
